sensor_id;sensor_type;location;lat;lon;timestamp;temperature;humidity
75363;DHT22;64122;51.988;5.892;2023-08-24T00:01:13;20.39;64.05
75363;DHT22;64122;51.988;5.892;2023-08-24T00:03:44;20.40;64.03
75363;DHT22;64122;51.988;5.892;2023-08-24T00:06:14;20.41;64.01
75363;DHT22;64122;51.988;5.892;2023-08-24T00:08:43;20.43;64.00
75363;DHT22;64122;51.988;5.892;2023-08-24T00:11:16;20.44;64.01
75363;DHT22;64122;51.988;5.892;2023-08-24T00:13:45;20.44;64.14
75363;DHT22;64122;51.988;5.892;2023-08-24T00:16:15;20.47;64.11
75363;DHT22;64122;51.988;5.892;2023-08-24T00:18:45;20.50;64.10
75363;DHT22;64122;51.988;5.892;2023-08-24T00:21:14;20.53;64.05
75363;DHT22;64122;51.988;5.892;2023-08-24T00:23:48;20.55;64.08
75363;DHT22;64122;51.988;5.892;2023-08-24T00:26:21;20.56;64.01
75363;DHT22;64122;51.988;5.892;2023-08-24T00:28:51;20.58;64.06
75363;DHT22;64122;51.988;5.892;2023-08-24T00:31:20;20.57;64.17
75363;DHT22;64122;51.988;5.892;2023-08-24T00:33:50;20.53;64.38
75363;DHT22;64122;51.988;5.892;2023-08-24T00:36:19;20.49;64.53
75363;DHT22;64122;51.988;5.892;2023-08-24T00:38:49;20.50;64.66
75363;DHT22;64122;51.988;5.892;2023-08-24T00:41:22;20.48;64.82
75363;DHT22;64122;51.988;5.892;2023-08-24T00:43:52;20.50;64.93
75363;DHT22;64122;51.988;5.892;2023-08-24T00:46:22;20.51;65.03
75363;DHT22;64122;51.988;5.892;2023-08-24T00:48:53;20.54;65.04
75363;DHT22;64122;51.988;5.892;2023-08-24T00:51:24;20.57;65.05
75363;DHT22;64122;51.988;5.892;2023-08-24T00:53:53;20.57;65.14
75363;DHT22;64122;51.988;5.892;2023-08-24T00:56:27;20.58;65.18
75363;DHT22;64122;51.988;5.892;2023-08-24T00:58:56;20.61;65.22
75363;DHT22;64122;51.988;5.892;2023-08-24T01:01:27;20.61;65.31
75363;DHT22;64122;51.988;5.892;2023-08-24T01:03:56;20.59;65.43
75363;DHT22;64122;51.988;5.892;2023-08-24T01:06:27;20.56;65.54
75363;DHT22;64122;51.988;5.892;2023-08-24T01:08:57;20.54;65.67
75363;DHT22;64122;51.988;5.892;2023-08-24T01:11:32;20.50;65.72
75363;DHT22;64122;51.988;5.892;2023-08-24T01:14:12;20.49;65.82
75363;DHT22;64122;51.988;5.892;2023-08-24T01:16:46;20.49;65.85
75363;DHT22;64122;51.988;5.892;2023-08-24T01:19:20;20.37;65.66
75363;DHT22;64122;51.988;5.892;2023-08-24T01:21:54;20.48;65.75
75363;DHT22;64122;51.988;5.892;2023-08-24T01:24:30;20.49;65.81
75363;DHT22;64122;51.988;5.892;2023-08-24T01:27:04;20.49;65.95
75363;DHT22;64122;51.988;5.892;2023-08-24T01:29:34;20.51;66.04
75363;DHT22;64122;51.988;5.892;2023-08-24T01:32:04;20.50;66.09
75363;DHT22;64122;51.988;5.892;2023-08-24T01:34:36;20.45;66.27
75363;DHT22;64122;51.988;5.892;2023-08-24T01:37:06;20.42;66.43
75363;DHT22;64122;51.988;5.892;2023-08-24T01:39:43;20.37;66.56
75363;DHT22;64122;51.988;5.892;2023-08-24T01:42:20;20.43;66.44
75363;DHT22;64122;51.988;5.892;2023-08-24T01:44:53;20.49;66.35
75363;DHT22;64122;51.988;5.892;2023-08-24T01:47:25;20.54;66.28
75363;DHT22;64122;51.988;5.892;2023-08-24T01:49:55;20.55;66.30
75363;DHT22;64122;51.988;5.892;2023-08-24T01:52:25;20.55;66.28
75363;DHT22;64122;51.988;5.892;2023-08-24T01:54:55;20.55;66.35
75363;DHT22;64122;51.988;5.892;2023-08-24T01:57:27;20.54;66.45
75363;DHT22;64122;51.988;5.892;2023-08-24T01:59:57;20.54;66.53
75363;DHT22;64122;51.988;5.892;2023-08-24T02:02:26;20.55;66.52
75363;DHT22;64122;51.988;5.892;2023-08-24T02:04:55;20.59;66.41
75363;DHT22;64122;51.988;5.892;2023-08-24T02:07:24;20.61;66.41
75363;DHT22;64122;51.988;5.892;2023-08-24T02:09:53;20.64;66.34
75363;DHT22;64122;51.988;5.892;2023-08-24T02:12:23;20.64;66.34
75363;DHT22;64122;51.988;5.892;2023-08-24T02:14:54;20.63;66.30
75363;DHT22;64122;51.988;5.892;2023-08-24T02:17:24;20.61;66.43
75363;DHT22;64122;51.988;5.892;2023-08-24T02:19:55;20.62;66.43
75363;DHT22;64122;51.988;5.892;2023-08-24T02:22:24;20.66;66.33
75363;DHT22;64122;51.988;5.892;2023-08-24T02:24:53;20.71;66.17
75363;DHT22;64122;51.988;5.892;2023-08-24T02:27:23;20.69;66.19
75363;DHT22;64122;51.988;5.892;2023-08-24T02:29:55;20.66;66.26
75363;DHT22;64122;51.988;5.892;2023-08-24T02:32:24;20.70;66.29
75363;DHT22;64122;51.988;5.892;2023-08-24T02:34:53;20.71;66.24
75363;DHT22;64122;51.988;5.892;2023-08-24T02:37:22;20.72;66.30
75363;DHT22;64122;51.988;5.892;2023-08-24T02:39:52;20.71;66.35
75363;DHT22;64122;51.988;5.892;2023-08-24T02:42:21;20.70;66.52
75363;DHT22;64122;51.988;5.892;2023-08-24T02:44:50;20.65;66.81
75363;DHT22;64122;51.988;5.892;2023-08-24T02:47:23;20.62;67.07
75363;DHT22;64122;51.988;5.892;2023-08-24T02:49:53;20.60;67.29
75363;DHT22;64122;51.988;5.892;2023-08-24T02:52:22;20.61;67.30
75363;DHT22;64122;51.988;5.892;2023-08-24T02:54:52;20.60;67.36
75363;DHT22;64122;51.988;5.892;2023-08-24T02:57:21;20.59;67.45
75363;DHT22;64122;51.988;5.892;2023-08-24T02:59:50;20.59;67.55
75363;DHT22;64122;51.988;5.892;2023-08-24T03:02:19;20.62;67.46
75363;DHT22;64122;51.988;5.892;2023-08-24T03:04:51;20.63;67.57
75363;DHT22;64122;51.988;5.892;2023-08-24T03:07:21;20.62;67.49
75363;DHT22;64122;51.988;5.892;2023-08-24T03:09:51;20.54;67.91
75363;DHT22;64122;51.988;5.892;2023-08-24T03:12:20;20.47;68.14
75363;DHT22;64122;51.988;5.892;2023-08-24T03:14:51;20.40;68.42
75363;DHT22;64122;51.988;5.892;2023-08-24T03:17:21;20.24;68.33
75363;DHT22;64122;51.988;5.892;2023-08-24T03:19:53;20.30;68.54
75363;DHT22;64122;51.988;5.892;2023-08-24T03:22:22;20.35;68.71
75363;DHT22;64122;51.988;5.892;2023-08-24T03:24:51;20.40;68.76
75363;DHT22;64122;51.988;5.892;2023-08-24T03:27:21;20.41;68.74
75363;DHT22;64122;51.988;5.892;2023-08-24T03:29:53;20.39;68.80
75363;DHT22;64122;51.988;5.892;2023-08-24T03:32:22;20.39;68.84
75363;DHT22;64122;51.988;5.892;2023-08-24T03:34:58;20.35;68.97
75363;DHT22;64122;51.988;5.892;2023-08-24T03:37:28;20.34;68.91
75363;DHT22;64122;51.988;5.892;2023-08-24T03:39:57;20.28;69.00
75363;DHT22;64122;51.988;5.892;2023-08-24T03:42:27;20.20;69.18
75363;DHT22;64122;51.988;5.892;2023-08-24T03:44:56;20.14;69.46
75363;DHT22;64122;51.988;5.892;2023-08-24T03:47:26;20.09;69.54
75363;DHT22;64122;51.988;5.892;2023-08-24T03:49:59;20.03;69.62
75363;DHT22;64122;51.988;5.892;2023-08-24T03:52:29;20.02;69.58
75363;DHT22;64122;51.988;5.892;2023-08-24T03:54:58;19.99;69.68
75363;DHT22;64122;51.988;5.892;2023-08-24T03:57:27;20.01;69.69
75363;DHT22;64122;51.988;5.892;2023-08-24T03:59:57;20.02;69.78
75363;DHT22;64122;51.988;5.892;2023-08-24T04:02:29;20.04;69.71
75363;DHT22;64122;51.988;5.892;2023-08-24T04:05:01;20.00;69.68
75363;DHT22;64122;51.988;5.892;2023-08-24T04:07:31;19.98;69.81
75363;DHT22;64122;51.988;5.892;2023-08-24T04:10:02;19.92;69.90
75363;DHT22;64122;51.988;5.892;2023-08-24T04:12:32;19.89;69.99
75363;DHT22;64122;51.988;5.892;2023-08-24T04:15:02;19.88;70.05
75363;DHT22;64122;51.988;5.892;2023-08-24T04:17:31;19.86;70.00
75363;DHT22;64122;51.988;5.892;2023-08-24T04:20:04;19.81;70.10
75363;DHT22;64122;51.988;5.892;2023-08-24T04:22:34;19.83;70.15
75363;DHT22;64122;51.988;5.892;2023-08-24T04:25:04;19.81;70.16
75363;DHT22;64122;51.988;5.892;2023-08-24T04:27:34;19.82;70.16
75363;DHT22;64122;51.988;5.892;2023-08-24T04:30:04;19.83;70.06
75363;DHT22;64122;51.988;5.892;2023-08-24T04:32:37;19.84;70.23
75363;DHT22;64122;51.988;5.892;2023-08-24T04:35:10;19.84;70.04
75363;DHT22;64122;51.988;5.892;2023-08-24T04:37:39;19.73;69.94
75363;DHT22;64122;51.988;5.892;2023-08-24T04:40:09;19.83;70.00
75363;DHT22;64122;51.988;5.892;2023-08-24T04:42:38;19.84;70.07
75363;DHT22;64122;51.988;5.892;2023-08-24T04:45:08;19.83;70.03
75363;DHT22;64122;51.988;5.892;2023-08-24T04:47:37;19.82;70.19
75363;DHT22;64122;51.988;5.892;2023-08-24T04:50:10;19.81;70.12
75363;DHT22;64122;51.988;5.892;2023-08-24T04:52:39;19.80;70.15
75363;DHT22;64122;51.988;5.892;2023-08-24T04:55:08;19.77;70.12
75363;DHT22;64122;51.988;5.892;2023-08-24T04:57:38;19.79;70.10
75363;DHT22;64122;51.988;5.892;2023-08-24T05:00:09;19.80;70.00
75363;DHT22;64122;51.988;5.892;2023-08-24T05:02:42;19.75;70.09
75363;DHT22;64122;51.988;5.892;2023-08-24T05:05:14;19.76;70.18
75363;DHT22;64122;51.988;5.892;2023-08-24T05:07:43;19.76;70.19
75363;DHT22;64122;51.988;5.892;2023-08-24T05:10:13;19.79;70.16
75363;DHT22;64122;51.988;5.892;2023-08-24T05:12:42;19.77;70.16
75363;DHT22;64122;51.988;5.892;2023-08-24T05:15:12;19.80;70.15
75363;DHT22;64122;51.988;5.892;2023-08-24T05:17:41;19.84;70.09
75363;DHT22;64122;51.988;5.892;2023-08-24T05:20:13;19.87;70.06
75363;DHT22;64122;51.988;5.892;2023-08-24T05:22:43;19.91;69.86
75363;DHT22;64122;51.988;5.892;2023-08-24T05:25:12;19.95;69.84
75363;DHT22;64122;51.988;5.892;2023-08-24T05:27:42;19.98;69.75
75363;DHT22;64122;51.988;5.892;2023-08-24T05:30:12;19.98;69.71
75363;DHT22;64122;51.988;5.892;2023-08-24T05:32:41;20.03;69.71
75363;DHT22;64122;51.988;5.892;2023-08-24T05:35:13;20.10;69.39
75363;DHT22;64122;51.988;5.892;2023-08-24T05:37:43;20.13;69.32
75363;DHT22;64122;51.988;5.892;2023-08-24T05:40:12;20.15;69.28
75363;DHT22;64122;51.988;5.892;2023-08-24T05:42:41;20.19;69.22
75363;DHT22;64122;51.988;5.892;2023-08-24T05:45:10;20.22;69.08
75363;DHT22;64122;51.988;5.892;2023-08-24T05:47:40;20.28;68.97
75363;DHT22;64122;51.988;5.892;2023-08-24T05:50:10;20.34;68.76
75363;DHT22;64122;51.988;5.892;2023-08-24T05:52:43;20.39;68.59
75363;DHT22;64122;51.988;5.892;2023-08-24T05:55:12;20.40;68.57
75363;DHT22;64122;51.988;5.892;2023-08-24T05:57:41;20.42;68.55
75363;DHT22;64122;51.988;5.892;2023-08-24T06:00:12;20.45;68.42
75363;DHT22;64122;51.988;5.892;2023-08-24T06:02:42;20.48;68.39
75363;DHT22;64122;51.988;5.892;2023-08-24T06:05:11;20.51;68.30
75363;DHT22;64122;51.988;5.892;2023-08-24T06:07:46;20.49;68.33
75363;DHT22;64122;51.988;5.892;2023-08-24T06:10:15;20.41;68.55
75363;DHT22;64122;51.988;5.892;2023-08-24T06:12:44;20.50;68.26
75363;DHT22;64122;51.988;5.892;2023-08-24T06:15:14;20.54;68.17
75363;DHT22;64122;51.988;5.892;2023-08-24T06:17:45;20.55;68.22
75363;DHT22;64122;51.988;5.892;2023-08-24T06:20:16;20.60;68.13
75363;DHT22;64122;51.988;5.892;2023-08-24T06:22:48;20.65;68.14
75363;DHT22;64122;51.988;5.892;2023-08-24T06:25:19;20.70;67.93
75363;DHT22;64122;51.988;5.892;2023-08-24T06:27:49;20.73;67.85
75363;DHT22;64122;51.988;5.892;2023-08-24T06:30:18;20.78;67.62
75363;DHT22;64122;51.988;5.892;2023-08-24T06:32:48;20.88;67.50
75363;DHT22;64122;51.988;5.892;2023-08-24T06:35:17;20.95;67.27
75363;DHT22;64122;51.988;5.892;2023-08-24T06:37:50;21.06;67.14
75363;DHT22;64122;51.988;5.892;2023-08-24T06:40:19;21.04;67.25
75363;DHT22;64122;51.988;5.892;2023-08-24T06:42:49;21.19;66.85
75363;DHT22;64122;51.988;5.892;2023-08-24T06:45:19;21.32;66.44
75363;DHT22;64122;51.988;5.892;2023-08-24T06:47:48;21.42;66.27
75363;DHT22;64122;51.988;5.892;2023-08-24T06:50:18;21.53;65.84
75363;DHT22;64122;51.988;5.892;2023-08-24T06:52:51;21.65;65.65
75363;DHT22;64122;51.988;5.892;2023-08-24T06:55:20;21.81;65.13
75363;DHT22;64122;51.988;5.892;2023-08-24T06:57:49;21.90;64.68
75363;DHT22;64122;51.988;5.892;2023-08-24T07:00:19;21.96;64.49
75363;DHT22;64122;51.988;5.892;2023-08-24T07:02:49;22.04;64.28
75363;DHT22;64122;51.988;5.892;2023-08-24T07:05:19;22.13;63.95
75363;DHT22;64122;51.988;5.892;2023-08-24T07:07:52;22.22;63.56
75363;DHT22;64122;51.988;5.892;2023-08-24T07:10:23;22.35;63.22
75363;DHT22;64122;51.988;5.892;2023-08-24T07:12:52;22.47;62.98
75363;DHT22;64122;51.988;5.892;2023-08-24T07:15:21;22.58;62.71
75363;DHT22;64122;51.988;5.892;2023-08-24T07:17:51;22.71;62.29
75363;DHT22;64122;51.988;5.892;2023-08-24T07:20:20;22.83;61.66
75363;DHT22;64122;51.988;5.892;2023-08-24T07:22:52;22.94;61.31
75363;DHT22;64122;51.988;5.892;2023-08-24T07:25:24;23.10;61.17
75363;DHT22;64122;51.988;5.892;2023-08-24T07:27:54;23.24;60.75
75363;DHT22;64122;51.988;5.892;2023-08-24T07:30:25;23.37;60.34
75363;DHT22;64122;51.988;5.892;2023-08-24T07:32:55;23.57;59.94
75363;DHT22;64122;51.988;5.892;2023-08-24T07:35:24;23.85;59.01
75363;DHT22;64122;51.988;5.892;2023-08-24T07:37:56;24.20;57.39
75363;DHT22;64122;51.988;5.892;2023-08-24T07:40:26;24.30;58.29
75363;DHT22;64122;51.988;5.892;2023-08-24T07:42:55;24.42;56.52
75363;DHT22;64122;51.988;5.892;2023-08-24T07:45:24;24.47;55.91
75363;DHT22;64122;51.988;5.892;2023-08-24T07:47:54;24.62;55.90
75363;DHT22;64122;51.988;5.892;2023-08-24T07:50:23;24.90;55.18
75363;DHT22;64122;51.988;5.892;2023-08-24T07:52:52;25.35;53.92
75363;DHT22;64122;51.988;5.892;2023-08-24T07:55:24;25.81;51.81
75363;DHT22;64122;51.988;5.892;2023-08-24T07:57:53;26.56;50.30
75363;DHT22;64122;51.988;5.892;2023-08-24T08:00:23;27.76;47.70
75363;DHT22;64122;51.988;5.892;2023-08-24T08:02:52;28.64;45.03
75363;DHT22;64122;51.988;5.892;2023-08-24T08:05:22;28.70;45.62
75363;DHT22;64122;51.988;5.892;2023-08-24T08:07:51;29.12;44.21
75363;DHT22;64122;51.988;5.892;2023-08-24T08:10:21;30.09;41.68
75363;DHT22;64122;51.988;5.892;2023-08-24T08:12:52;31.30;39.91
75363;DHT22;64122;51.988;5.892;2023-08-24T08:15:22;32.30;39.70
75363;DHT22;64122;51.988;5.892;2023-08-24T08:17:51;33.02;37.27
75363;DHT22;64122;51.988;5.892;2023-08-24T08:20:21;33.58;36.01
75363;DHT22;64122;51.988;5.892;2023-08-24T08:22:50;33.77;35.63
75363;DHT22;64122;51.988;5.892;2023-08-24T08:25:19;33.78;35.10
75363;DHT22;64122;51.988;5.892;2023-08-24T08:27:51;33.68;35.27
75363;DHT22;64122;51.988;5.892;2023-08-24T08:30:21;33.40;35.76
75363;DHT22;64122;51.988;5.892;2023-08-24T08:32:50;32.68;36.67
75363;DHT22;64122;51.988;5.892;2023-08-24T08:35:22;31.98;38.35
75363;DHT22;64122;51.988;5.892;2023-08-24T08:37:51;31.72;38.78
75363;DHT22;64122;51.988;5.892;2023-08-24T08:40:20;31.31;39.52
75363;DHT22;64122;51.988;5.892;2023-08-24T08:42:58;31.16;40.05
75363;DHT22;64122;51.988;5.892;2023-08-24T08:45:28;30.96;40.41
75363;DHT22;64122;51.988;5.892;2023-08-24T08:47:58;31.02;40.46
75363;DHT22;64122;51.988;5.892;2023-08-24T08:50:28;30.97;40.38
75363;DHT22;64122;51.988;5.892;2023-08-24T08:52:58;30.75;41.28
75363;DHT22;64122;51.988;5.892;2023-08-24T08:55:28;30.65;41.44
75363;DHT22;64122;51.988;5.892;2023-08-24T08:58:00;30.40;41.84
75363;DHT22;64122;51.988;5.892;2023-08-24T09:00:31;30.36;42.13
75363;DHT22;64122;51.988;5.892;2023-08-24T09:03:01;30.56;41.75
75363;DHT22;64122;51.988;5.892;2023-08-24T09:05:32;30.89;41.20
75363;DHT22;64122;51.988;5.892;2023-08-24T09:08:02;31.36;40.55
75363;DHT22;64122;51.988;5.892;2023-08-24T09:10:32;31.52;39.81
75363;DHT22;64122;51.988;5.892;2023-08-24T09:13:04;31.69;39.34
75363;DHT22;64122;51.988;5.892;2023-08-24T09:15:35;31.87;39.42
75363;DHT22;64122;51.988;5.892;2023-08-24T09:18:05;31.88;39.28
75363;DHT22;64122;51.988;5.892;2023-08-24T09:20:34;31.82;39.36
75363;DHT22;64122;51.988;5.892;2023-08-24T09:23:03;31.58;39.52
75363;DHT22;64122;51.988;5.892;2023-08-24T09:25:33;31.44;39.76
75363;DHT22;64122;51.988;5.892;2023-08-24T09:28:22;31.31;40.25
75363;DHT22;64122;51.988;5.892;2023-08-24T09:30:55;31.20;39.80
75363;DHT22;64122;51.988;5.892;2023-08-24T09:33:24;31.26;39.88
75363;DHT22;64122;51.988;5.892;2023-08-24T09:35:54;31.50;39.55
75363;DHT22;64122;51.988;5.892;2023-08-24T09:38:27;31.86;39.20
75363;DHT22;64122;51.988;5.892;2023-08-24T09:40:57;32.10;38.77
75363;DHT22;64122;51.988;5.892;2023-08-24T09:43:30;32.12;38.74
75363;DHT22;64122;51.988;5.892;2023-08-24T09:45:59;32.23;38.96
75363;DHT22;64122;51.988;5.892;2023-08-24T09:48:30;32.20;38.58
75363;DHT22;64122;51.988;5.892;2023-08-24T09:51:03;31.94;39.05
75363;DHT22;64122;51.988;5.892;2023-08-24T09:53:37;31.60;39.89
75363;DHT22;64122;51.988;5.892;2023-08-24T09:56:08;31.35;40.66
75363;DHT22;64122;51.988;5.892;2023-08-24T09:58:41;31.23;41.07
75363;DHT22;64122;51.988;5.892;2023-08-24T10:01:11;31.22;41.22
75363;DHT22;64122;51.988;5.892;2023-08-24T10:03:41;31.02;41.26
75363;DHT22;64122;51.988;5.892;2023-08-24T10:06:12;30.49;42.37
75363;DHT22;64122;51.988;5.892;2023-08-24T10:08:47;30.01;42.78
75363;DHT22;64122;51.988;5.892;2023-08-24T10:11:22;29.64;43.64
75363;DHT22;64122;51.988;5.892;2023-08-24T10:14:00;29.45;43.89
75363;DHT22;64122;51.988;5.892;2023-08-24T10:16:35;29.24;44.51
75363;DHT22;64122;51.988;5.892;2023-08-24T10:19:04;29.08;45.03
75363;DHT22;64122;51.988;5.892;2023-08-24T10:21:36;28.93;45.30
75363;DHT22;64122;51.988;5.892;2023-08-24T10:24:06;28.79;45.81
75363;DHT22;64122;51.988;5.892;2023-08-24T10:26:39;28.64;45.94
75363;DHT22;64122;51.988;5.892;2023-08-24T10:29:12;28.55;46.50
75363;DHT22;64122;51.988;5.892;2023-08-24T10:31:42;28.54;46.51
75363;DHT22;64122;51.988;5.892;2023-08-24T10:34:11;28.48;46.64
75363;DHT22;64122;51.988;5.892;2023-08-24T10:36:41;28.32;46.96
75363;DHT22;64122;51.988;5.892;2023-08-24T10:39:11;28.15;47.33
75363;DHT22;64122;51.988;5.892;2023-08-24T10:41:47;27.98;47.67
75363;DHT22;64122;51.988;5.892;2023-08-24T10:44:25;27.79;48.18
75363;DHT22;64122;51.988;5.892;2023-08-24T10:47:12;27.65;48.59
75363;DHT22;64122;51.988;5.892;2023-08-24T10:49:41;27.57;48.93
75363;DHT22;64122;51.988;5.892;2023-08-24T10:52:18;27.49;49.16
75363;DHT22;64122;51.988;5.892;2023-08-24T10:54:48;27.40;49.55
75363;DHT22;64122;51.988;5.892;2023-08-24T10:57:18;27.34;49.76
75363;DHT22;64122;51.988;5.892;2023-08-24T11:00:03;27.28;49.98
75363;DHT22;64122;51.988;5.892;2023-08-24T11:02:42;27.25;50.37
75363;DHT22;64122;51.988;5.892;2023-08-24T11:05:16;27.26;50.82
75363;DHT22;64122;51.988;5.892;2023-08-24T11:07:53;27.25;50.98
75363;DHT22;64122;51.988;5.892;2023-08-24T11:10:24;27.26;51.52
75363;DHT22;64122;51.988;5.892;2023-08-24T11:13:14;27.23;51.63
75363;DHT22;64122;51.988;5.892;2023-08-24T11:15:48;27.26;51.56
75363;DHT22;64122;51.988;5.892;2023-08-24T11:18:21;27.29;51.71
75363;DHT22;64122;51.988;5.892;2023-08-24T11:20:54;27.28;51.69
75363;DHT22;64122;51.988;5.892;2023-08-24T11:23:24;27.28;51.81
75363;DHT22;64122;51.988;5.892;2023-08-24T11:25:57;27.27;52.16
75363;DHT22;64122;51.988;5.892;2023-08-24T11:28:28;27.24;52.12
75363;DHT22;64122;51.988;5.892;2023-08-24T11:31:00;27.21;52.11
75363;DHT22;64122;51.988;5.892;2023-08-24T11:33:30;27.20;52.10
75363;DHT22;64122;51.988;5.892;2023-08-24T11:36:02;27.26;51.32
75363;DHT22;64122;51.988;5.892;2023-08-24T11:38:37;27.31;51.34
75363;DHT22;64122;51.988;5.892;2023-08-24T11:41:13;27.37;50.80
75363;DHT22;64122;51.988;5.892;2023-08-24T11:43:44;27.46;50.85
75363;DHT22;64122;51.988;5.892;2023-08-24T11:46:17;27.55;50.25
75363;DHT22;64122;51.988;5.892;2023-08-24T11:48:47;27.59;50.26
75363;DHT22;64122;51.988;5.892;2023-08-24T11:51:17;27.63;50.05
75363;DHT22;64122;51.988;5.892;2023-08-24T11:53:47;27.61;49.92
75363;DHT22;64122;51.988;5.892;2023-08-24T11:56:16;27.54;49.84
75363;DHT22;64122;51.988;5.892;2023-08-24T11:58:48;27.49;49.84
75363;DHT22;64122;51.988;5.892;2023-08-24T12:01:21;27.47;49.92
75363;DHT22;64122;51.988;5.892;2023-08-24T12:03:50;27.46;49.90
75363;DHT22;64122;51.988;5.892;2023-08-24T12:06:20;27.53;49.95
75363;DHT22;64122;51.988;5.892;2023-08-24T12:08:49;27.61;49.72
75363;DHT22;64122;51.988;5.892;2023-08-24T12:11:20;27.65;49.73
75363;DHT22;64122;51.988;5.892;2023-08-24T12:13:52;27.69;49.59
75363;DHT22;64122;51.988;5.892;2023-08-24T12:16:24;27.72;49.68
75363;DHT22;64122;51.988;5.892;2023-08-24T12:18:54;27.76;49.61
75363;DHT22;64122;51.988;5.892;2023-08-24T12:21:26;27.76;49.50
75363;DHT22;64122;51.988;5.892;2023-08-24T12:23:56;27.74;49.65
75363;DHT22;64122;51.988;5.892;2023-08-24T12:26:26;27.71;49.60
75363;DHT22;64122;51.988;5.892;2023-08-24T12:29:00;27.63;50.11
75363;DHT22;64122;51.988;5.892;2023-08-24T12:31:32;27.64;50.20
75363;DHT22;64122;51.988;5.892;2023-08-24T12:34:03;27.68;50.37
75363;DHT22;64122;51.988;5.892;2023-08-24T12:36:36;27.69;50.36
75363;DHT22;64122;51.988;5.892;2023-08-24T12:39:07;27.65;50.59
75363;DHT22;64122;51.988;5.892;2023-08-24T12:41:38;27.60;50.77
75363;DHT22;64122;51.988;5.892;2023-08-24T12:44:08;27.54;51.08
75363;DHT22;64122;51.988;5.892;2023-08-24T12:46:40;27.55;51.12
75363;DHT22;64122;51.988;5.892;2023-08-24T12:49:09;27.49;51.09
75363;DHT22;64122;51.988;5.892;2023-08-24T12:51:38;27.58;51.44
75363;DHT22;64122;51.988;5.892;2023-08-24T12:54:07;27.54;52.40
75363;DHT22;64122;51.988;5.892;2023-08-24T12:56:38;27.50;53.05
75363;DHT22;64122;51.988;5.892;2023-08-24T12:59:07;27.44;53.49
75363;DHT22;64122;51.988;5.892;2023-08-24T13:01:40;27.44;53.98
75363;DHT22;64122;51.988;5.892;2023-08-24T13:04:09;27.42;54.16
75363;DHT22;64122;51.988;5.892;2023-08-24T13:06:39;27.40;54.03
75363;DHT22;64122;51.988;5.892;2023-08-24T13:09:08;27.40;53.65
75363;DHT22;64122;51.988;5.892;2023-08-24T13:11:38;27.41;53.76
75363;DHT22;64122;51.988;5.892;2023-08-24T13:14:07;27.41;53.83
75363;DHT22;64122;51.988;5.892;2023-08-24T13:16:37;27.42;54.07
75363;DHT22;64122;51.988;5.892;2023-08-24T13:19:09;27.47;53.88
75363;DHT22;64122;51.988;5.892;2023-08-24T13:21:37;27.49;53.56
75363;DHT22;64122;51.988;5.892;2023-08-24T13:24:07;27.73;53.04
75363;DHT22;64122;51.988;5.892;2023-08-24T13:26:36;27.87;52.18
75363;DHT22;64122;51.988;5.892;2023-08-24T13:29:05;28.00;51.81
75363;DHT22;64122;51.988;5.892;2023-08-24T13:31:34;28.11;51.75
75363;DHT22;64122;51.988;5.892;2023-08-24T13:34:03;28.19;52.13
75363;DHT22;64122;51.988;5.892;2023-08-24T13:36:36;28.32;52.40
75363;DHT22;64122;51.988;5.892;2023-08-24T13:39:05;28.33;52.07
75363;DHT22;64122;51.988;5.892;2023-08-24T13:41:34;28.42;51.41
75363;DHT22;64122;51.988;5.892;2023-08-24T13:44:04;28.49;51.45
75363;DHT22;64122;51.988;5.892;2023-08-24T13:46:33;28.53;51.24
75363;DHT22;64122;51.988;5.892;2023-08-24T13:49:02;28.54;51.23
75363;DHT22;64122;51.988;5.892;2023-08-24T13:51:31;28.53;51.37
75363;DHT22;64122;51.988;5.892;2023-08-24T13:54:13;28.47;51.19
75363;DHT22;64122;51.988;5.892;2023-08-24T13:56:44;28.47;51.27
75363;DHT22;64122;51.988;5.892;2023-08-24T13:59:13;28.41;51.59
75363;DHT22;64122;51.988;5.892;2023-08-24T14:01:42;28.40;51.88
75363;DHT22;64122;51.988;5.892;2023-08-24T14:04:12;28.32;51.96
75363;DHT22;64122;51.988;5.892;2023-08-24T14:06:41;28.23;52.07
75363;DHT22;64122;51.988;5.892;2023-08-24T14:09:13;28.15;52.24
75363;DHT22;64122;51.988;5.892;2023-08-24T14:11:42;27.96;52.43
75363;DHT22;64122;51.988;5.892;2023-08-24T14:14:11;27.86;52.37
75363;DHT22;64122;51.988;5.892;2023-08-24T14:16:40;27.68;52.81
75363;DHT22;64122;51.988;5.892;2023-08-24T14:19:09;27.63;52.98
75363;DHT22;64122;51.988;5.892;2023-08-24T14:21:40;27.55;53.44
75363;DHT22;64122;51.988;5.892;2023-08-24T14:24:12;27.50;53.56
75363;DHT22;64122;51.988;5.892;2023-08-24T14:26:43;27.45;53.79
75363;DHT22;64122;51.988;5.892;2023-08-24T14:29:14;27.42;54.20
75363;DHT22;64122;51.988;5.892;2023-08-24T14:31:43;27.40;54.17
75363;DHT22;64122;51.988;5.892;2023-08-24T14:34:12;27.34;53.80
75363;DHT22;64122;51.988;5.892;2023-08-24T14:36:42;27.29;53.75
75363;DHT22;64122;51.988;5.892;2023-08-24T14:39:15;27.24;53.84
75363;DHT22;64122;51.988;5.892;2023-08-24T14:41:44;27.20;54.06
75363;DHT22;64122;51.988;5.892;2023-08-24T14:44:13;27.15;54.19
75363;DHT22;64122;51.988;5.892;2023-08-24T14:46:43;27.17;54.39
75363;DHT22;64122;51.988;5.892;2023-08-24T14:49:12;27.14;54.60
75363;DHT22;64122;51.988;5.892;2023-08-24T14:51:45;27.17;54.71
75363;DHT22;64122;51.988;5.892;2023-08-24T14:54:17;27.15;54.72
75363;DHT22;64122;51.988;5.892;2023-08-24T14:56:46;27.14;54.62
75363;DHT22;64122;51.988;5.892;2023-08-24T14:59:16;27.09;54.71
75363;DHT22;64122;51.988;5.892;2023-08-24T15:01:45;27.04;54.88
75363;DHT22;64122;51.988;5.892;2023-08-24T15:04:14;27.05;55.10
75363;DHT22;64122;51.988;5.892;2023-08-24T15:06:43;27.06;54.93
75363;DHT22;64122;51.988;5.892;2023-08-24T15:09:13;27.04;55.10
75363;DHT22;64122;51.988;5.892;2023-08-24T15:11:45;27.01;55.29
75363;DHT22;64122;51.988;5.892;2023-08-24T15:14:14;26.90;55.15
75363;DHT22;64122;51.988;5.892;2023-08-24T15:16:43;26.95;55.07
75363;DHT22;64122;51.988;5.892;2023-08-24T15:19:12;26.92;55.10
75363;DHT22;64122;51.988;5.892;2023-08-24T15:21:42;26.89;55.20
75363;DHT22;64122;51.988;5.892;2023-08-24T15:24:11;26.89;55.39
75363;DHT22;64122;51.988;5.892;2023-08-24T15:26:40;26.91;55.51
75363;DHT22;64122;51.988;5.892;2023-08-24T15:29:14;26.89;55.38
75363;DHT22;64122;51.988;5.892;2023-08-24T15:31:44;26.84;55.62
75363;DHT22;64122;51.988;5.892;2023-08-24T15:34:13;26.85;55.47
75363;DHT22;64122;51.988;5.892;2023-08-24T15:36:43;26.83;55.49
75363;DHT22;64122;51.988;5.892;2023-08-24T15:39:12;26.86;55.27
75363;DHT22;64122;51.988;5.892;2023-08-24T15:41:41;26.82;55.20
75363;DHT22;64122;51.988;5.892;2023-08-24T15:44:13;26.82;55.16
75363;DHT22;64122;51.988;5.892;2023-08-24T15:46:42;26.76;55.15
75363;DHT22;64122;51.988;5.892;2023-08-24T15:49:11;26.78;54.99
75363;DHT22;64122;51.988;5.892;2023-08-24T15:51:41;26.77;55.20